createdAt,value
2022-10-11T00:01:27.985Z,46.65
2022-10-11T00:03:55.061Z,46.82
2022-10-11T00:06:21.841Z,46.30
2022-10-11T00:08:48.645Z,46.73
2022-10-11T00:11:15.757Z,46.54
2022-10-11T00:13:42.537Z,46.58
2022-10-11T00:16:10.580Z,46.33
2022-10-11T00:18:37.917Z,46.56
2022-10-11T00:21:06.689Z,46.92
2022-10-11T00:23:33.477Z,46.42
2022-10-11T00:26:01.481Z,46.41
2022-10-11T00:28:28.673Z,46.78
2022-10-11T00:30:55.481Z,46.58
2022-10-11T00:33:22.677Z,46.81
2022-10-11T00:35:49.461Z,47.02
2022-10-11T00:38:16.497Z,46.62
2022-10-11T00:40:43.861Z,46.62
2022-10-11T00:43:17.798Z,46.49
2022-10-11T00:45:57.124Z,46.52
2022-10-11T00:48:37.605Z,46.59
2022-10-11T00:51:07.267Z,46.80
2022-10-11T00:53:34.515Z,46.75
2022-10-11T00:56:05.186Z,47.02
2022-10-11T00:58:34.009Z,47.01
2022-10-11T01:01:00.958Z,46.73
2022-10-11T01:03:28.056Z,46.67
2022-10-11T01:05:57.804Z,46.90
2022-10-11T01:08:24.675Z,46.56
2022-10-11T01:10:51.934Z,46.81
2022-10-11T01:13:28.576Z,46.68
2022-10-11T01:16:14.315Z,46.73
2022-10-11T01:18:48.975Z,46.85
2022-10-11T01:21:43.760Z,46.63
2022-10-11T01:24:38.212Z,46.70
2022-10-11T01:27:26.627Z,46.64
2022-10-11T01:30:02.549Z,46.46
2022-10-11T01:32:34.815Z,46.46
2022-10-11T01:35:14.443Z,46.95
2022-10-11T01:37:43.959Z,46.80
2022-10-11T01:40:17.180Z,46.52
2022-10-11T01:42:44.207Z,46.75
2022-10-11T01:45:15.808Z,46.58
2022-10-11T01:47:42.678Z,46.80
2022-10-11T01:50:31.568Z,46.64
2022-10-11T01:52:58.403Z,46.48
2022-10-11T01:55:30.747Z,46.93
2022-10-11T01:58:03.687Z,46.55
2022-10-11T02:00:52.357Z,46.99
2022-10-11T02:03:41.025Z,46.68
2022-10-11T02:06:21.387Z,46.69
2022-10-11T02:08:51.212Z,46.66
2022-10-11T02:11:27.877Z,46.75
2022-10-11T02:13:57.823Z,46.64
2022-10-11T02:16:28.440Z,46.77
2022-10-11T02:18:55.184Z,46.57
2022-10-11T02:21:22.386Z,46.78
2022-10-11T02:23:59.596Z,46.56
2022-10-11T02:26:28.300Z,46.68
2022-10-11T02:28:56.753Z,47.06
2022-10-11T02:31:23.584Z,46.94
2022-10-11T02:34:07.563Z,47.01
2022-10-11T02:36:46.379Z,46.95
2022-10-11T02:39:17.962Z,46.86
2022-10-11T02:41:44.991Z,46.76
2022-10-11T02:44:21.491Z,46.70
2022-10-11T02:46:48.550Z,46.89
2022-10-11T02:49:15.308Z,46.94
2022-10-11T02:51:42.094Z,47.13
2022-10-11T02:54:09.116Z,46.91
2022-10-11T02:56:35.914Z,47.05
2022-10-11T02:59:02.710Z,47.15
2022-10-11T03:01:29.793Z,47.32
2022-10-11T03:03:56.662Z,47.10
2022-10-11T03:06:23.406Z,46.93
2022-10-11T03:08:50.423Z,47.00
2022-10-11T03:11:17.420Z,47.31
2022-10-11T03:13:44.182Z,47.18
2022-10-11T03:16:11.495Z,47.28
2022-10-11T03:18:38.361Z,47.06
2022-10-11T03:21:05.180Z,47.17
2022-10-11T03:23:32.210Z,47.07
2022-10-11T03:25:59.002Z,47.35
2022-10-11T03:28:25.890Z,47.15
2022-10-11T03:30:53.037Z,46.99
2022-10-11T03:33:19.822Z,47.30
2022-10-11T03:35:47.190Z,47.01
2022-10-11T03:38:15.436Z,47.39
2022-10-11T03:40:42.807Z,47.18
2022-10-11T03:43:10.090Z,47.23
2022-10-11T03:45:37.166Z,47.19
2022-10-11T03:48:04.234Z,47.24
2022-10-11T03:50:31.370Z,47.68
2022-10-11T03:52:58.373Z,47.28
2022-10-11T03:55:25.175Z,47.44
2022-10-11T03:57:51.969Z,47.42
2022-10-11T04:00:19.062Z,46.97
2022-10-11T04:02:45.826Z,47.32
2022-10-11T04:05:12.730Z,47.52
2022-10-11T04:07:40.225Z,47.34
2022-10-11T04:10:07.466Z,47.42
2022-10-11T04:12:34.301Z,47.43
2022-10-11T04:15:01.309Z,47.22
2022-10-11T04:17:28.149Z,47.40
2022-10-11T04:19:54.893Z,47.45
2022-10-11T04:22:21.882Z,47.25
2022-10-11T04:24:48.636Z,47.33
2022-10-11T04:27:15.413Z,47.37
2022-10-11T04:29:42.382Z,47.57
2022-10-11T04:32:09.117Z,47.85
2022-10-11T04:34:35.940Z,47.47
2022-10-11T04:37:02.965Z,47.46
2022-10-11T04:39:29.733Z,47.31
2022-10-11T04:41:56.533Z,47.40
2022-10-11T04:44:23.745Z,47.58
2022-10-11T04:46:50.550Z,47.53
2022-10-11T04:49:17.328Z,47.23
2022-10-11T04:51:44.336Z,48.01
2022-10-11T04:54:11.096Z,47.95
2022-10-11T04:56:37.889Z,47.79
2022-10-11T04:59:04.932Z,47.85
2022-10-11T05:01:31.702Z,47.98
2022-10-11T05:03:58.504Z,47.96
2022-10-11T05:06:25.604Z,47.72
2022-10-11T05:08:52.357Z,47.63
2022-10-11T05:11:19.272Z,47.99
2022-10-11T05:13:46.345Z,47.69
2022-10-11T05:16:13.744Z,47.91
2022-10-11T05:18:40.734Z,47.88
2022-10-11T05:21:09.069Z,47.97
2022-10-11T05:23:36.320Z,48.07
2022-10-11T05:26:03.680Z,47.79
2022-10-11T05:28:31.244Z,48.06
2022-10-11T05:30:58.202Z,48.11
2022-10-11T05:33:25.847Z,48.09
2022-10-11T05:35:53.016Z,47.78
2022-10-11T05:38:19.942Z,47.75
2022-10-11T05:40:46.687Z,47.68
2022-10-11T05:43:13.731Z,47.90
2022-10-11T05:45:41.454Z,47.80
2022-10-11T05:48:08.779Z,47.77
2022-10-11T05:50:36.229Z,47.76
2022-10-11T05:53:03.011Z,47.92
2022-10-11T05:55:29.819Z,47.97
2022-10-11T05:57:57.551Z,47.88
2022-10-11T06:00:24.464Z,47.97
2022-10-11T06:02:51.226Z,47.81
2022-10-11T06:05:18.255Z,47.94
2022-10-11T06:07:45.098Z,47.87
2022-10-11T06:10:12.030Z,48.06
2022-10-11T06:12:39.655Z,48.05
2022-10-11T06:15:07.487Z,48.03
2022-10-11T06:17:34.816Z,48.15
2022-10-11T06:20:01.868Z,48.17
2022-10-11T06:22:29.426Z,48.13
2022-10-11T06:24:56.274Z,47.82
2022-10-11T06:27:23.290Z,47.90
2022-10-11T06:29:50.038Z,47.79
2022-10-11T06:32:17.109Z,47.97
2022-10-11T06:34:43.882Z,47.82
2022-10-11T06:37:10.630Z,47.83
2022-10-11T06:39:37.773Z,47.71
2022-10-11T06:42:04.569Z,47.79
2022-10-11T06:44:31.365Z,47.95
2022-10-11T06:46:58.413Z,47.88
2022-10-11T06:49:25.250Z,48.17
2022-10-11T06:51:52.257Z,48.04
2022-10-11T06:54:19.698Z,47.99
2022-10-11T06:56:46.506Z,48.20
2022-10-11T06:59:13.563Z,47.94
2022-10-11T07:01:41.986Z,48.12
2022-10-11T07:04:08.945Z,48.54
2022-10-11T07:06:39.722Z,48.36
2022-10-11T07:09:07.226Z,48.52
2022-10-11T07:11:34.437Z,48.71
2022-10-11T07:14:04.292Z,48.63
2022-10-11T07:16:31.334Z,49.12
2022-10-11T07:19:00.740Z,48.75
2022-10-11T07:21:28.436Z,49.11
2022-10-11T07:23:55.484Z,48.90
2022-10-11T07:26:22.284Z,48.78
2022-10-11T07:28:49.089Z,48.71
2022-10-11T07:31:21.022Z,49.38
2022-10-11T07:33:47.864Z,48.47
2022-10-11T07:36:14.660Z,48.47
2022-10-11T07:38:42.436Z,48.34
2022-10-11T07:41:09.392Z,48.52
2022-10-11T07:43:36.717Z,48.93
2022-10-11T07:46:04.881Z,48.77
2022-10-11T07:48:32.508Z,48.69
2022-10-11T07:51:19.320Z,48.63
2022-10-11T07:53:51.012Z,48.98
2022-10-11T07:56:25.992Z,48.65
2022-10-11T07:58:58.131Z,48.33
2022-10-11T08:01:25.872Z,48.87
2022-10-11T08:03:52.783Z,48.58
2022-10-11T08:06:21.423Z,48.79
2022-10-11T08:08:48.968Z,48.59
2022-10-11T08:11:25.879Z,48.75
2022-10-11T08:13:53.071Z,48.67
2022-10-11T08:24:45.780Z,49.56
2022-10-11T08:27:12.597Z,48.95
2022-10-11T08:29:39.612Z,48.90
2022-10-11T08:32:06.439Z,48.95
2022-10-11T08:34:33.291Z,49.21
2022-10-11T08:37:00.323Z,49.94
2022-10-11T08:39:27.120Z,49.09
2022-10-11T08:42:09.130Z,49.47
2022-10-11T08:45:08.921Z,49.61
2022-10-11T08:47:43.186Z,49.63
2022-10-11T08:50:21.303Z,49.84
2022-10-11T08:52:53.379Z,49.56
2022-10-11T08:55:30.087Z,49.73
2022-10-11T08:57:57.384Z,49.34
2022-10-11T09:00:24.670Z,49.78
2022-10-11T09:03:36.970Z,49.27
2022-10-11T09:06:35.978Z,49.06
2022-10-11T09:09:40.360Z,49.14
2022-10-11T09:12:11.038Z,48.96
2022-10-11T09:14:45.991Z,49.10
2022-10-11T09:17:34.864Z,48.90
2022-10-11T09:20:23.382Z,49.23
2022-10-11T09:23:27.425Z,49.21
2022-10-11T09:26:03.780Z,49.23
2022-10-11T09:28:34.012Z,48.86
2022-10-11T09:31:00.810Z,49.46
2022-10-11T09:33:54.789Z,49.35
2022-10-11T09:36:49.633Z,49.28
2022-10-11T09:39:33.260Z,49.29
2022-10-11T09:42:05.512Z,49.10
2022-10-11T09:44:37.450Z,49.13
2022-10-11T09:47:04.816Z,49.29
2022-10-11T09:49:43.189Z,49.30
2022-10-11T09:52:18.857Z,48.88
2022-10-11T09:54:47.711Z,49.17
2022-10-11T09:57:27.454Z,49.21
2022-10-11T10:00:00.258Z,48.85
2022-10-11T10:02:29.159Z,49.60
2022-10-11T10:05:00.786Z,49.31
2022-10-11T10:07:28.603Z,49.38
2022-10-11T10:09:55.768Z,49.21
2022-10-11T10:12:24.497Z,49.48
2022-10-11T10:15:08.623Z,49.24
2022-10-11T10:17:35.872Z,49.49
2022-10-11T10:20:05.615Z,49.09
2022-10-11T10:22:34.428Z,49.48
2022-10-11T10:25:07.900Z,49.24
2022-10-11T10:27:34.719Z,49.03
2022-10-11T10:30:07.680Z,48.63
2022-10-11T10:32:36.376Z,48.99
2022-10-11T10:35:07.462Z,49.35
2022-10-11T10:37:46.080Z,49.33
2022-10-11T10:40:25.587Z,48.95
2022-10-11T10:42:52.403Z,49.26
2022-10-11T10:45:21.782Z,48.74
2022-10-11T10:48:24.727Z,48.23
2022-10-11T10:51:01.327Z,48.65
2022-10-11T10:54:25.023Z,48.89
2022-10-11T10:57:03.103Z,49.22
2022-10-11T10:59:30.427Z,49.01
2022-10-11T11:02:15.989Z,49.12
2022-10-11T11:05:01.717Z,49.03
2022-10-11T11:07:37.871Z,49.01
2022-10-11T11:10:07.319Z,48.91
2022-10-11T11:13:00.987Z,48.90
2022-10-11T11:15:35.541Z,48.68
2022-10-11T11:18:04.647Z,48.95
2022-10-11T11:20:37.435Z,48.49
2022-10-11T11:23:31.655Z,48.73
2022-10-11T11:26:13.020Z,48.40
2022-10-11T11:29:17.614Z,47.93
2022-10-11T11:32:03.156Z,48.27
2022-10-11T11:34:34.407Z,47.94
2022-10-11T11:37:06.895Z,48.16
2022-10-11T11:39:48.469Z,47.79
2022-10-11T11:42:22.911Z,48.15
2022-10-11T11:44:50.963Z,47.47
2022-10-11T11:47:29.307Z,47.76
2022-10-11T11:50:02.133Z,47.87
2022-10-11T11:52:36.404Z,47.40
2022-10-11T11:55:23.080Z,47.41
2022-10-11T11:57:56.241Z,47.29
2022-10-11T12:00:28.013Z,46.73
2022-10-11T12:03:06.278Z,46.75
2022-10-11T12:05:34.419Z,46.91
2022-10-11T12:08:06.771Z,46.62
2022-10-11T12:10:48.847Z,46.65
2022-10-11T12:13:48.690Z,46.36
2022-10-11T12:16:16.579Z,46.06
2022-10-11T12:18:59.032Z,45.90
2022-10-11T12:21:27.647Z,45.99
2022-10-11T12:23:56.039Z,45.57
2022-10-11T12:26:28.903Z,45.31
2022-10-11T12:29:02.344Z,45.34
2022-10-11T12:31:35.923Z,45.14
2022-10-11T12:34:09.139Z,44.89
2022-10-11T12:36:46.718Z,44.76
2022-10-11T12:39:19.810Z,45.07
2022-10-11T12:41:47.314Z,44.97
2022-10-11T12:44:23.095Z,45.00
2022-10-11T12:46:57.574Z,44.92
2022-10-11T12:49:33.408Z,44.70
2022-10-11T12:52:03.823Z,44.77
2022-10-11T12:54:49.395Z,44.74
2022-10-11T12:57:39.682Z,44.81
2022-10-11T13:00:12.561Z,44.56
2022-10-11T13:02:40.403Z,44.95
2022-10-11T13:05:29.957Z,44.24
2022-10-11T13:07:58.702Z,44.53
2022-10-11T13:10:31.071Z,44.59
2022-10-11T13:12:59.718Z,44.30
2022-10-11T13:15:26.645Z,44.68
2022-10-11T13:17:58.832Z,44.35
2022-10-11T13:20:26.930Z,45.06
2022-10-11T13:22:54.897Z,44.74
2022-10-11T13:25:29.662Z,44.83
2022-10-11T13:27:57.993Z,44.30
2022-10-11T13:30:30.021Z,44.77
2022-10-11T13:32:57.742Z,44.34
2022-10-11T13:35:37.585Z,44.43
2022-10-11T13:38:08.264Z,44.35
2022-10-11T13:40:35.043Z,44.77
2022-10-11T13:43:02.147Z,44.47
2022-10-11T13:45:30.738Z,44.41
2022-10-11T13:47:57.641Z,44.49
2022-10-11T13:50:31.781Z,44.52
2022-10-11T13:53:03.716Z,44.56
2022-10-11T13:55:34.499Z,44.88
2022-10-11T13:58:03.260Z,44.65
2022-10-11T14:00:34.898Z,45.12
2022-10-11T14:03:15.656Z,44.99
2022-10-11T14:05:51.605Z,44.53
2022-10-11T14:08:31.012Z,44.87
2022-10-11T14:11:01.279Z,44.90
2022-10-11T14:13:58.752Z,45.27
2022-10-11T14:16:25.533Z,45.26
2022-10-11T14:19:12.852Z,45.26
2022-10-11T14:21:45.864Z,45.27
2022-10-11T14:24:13.361Z,45.02
2022-10-11T14:26:41.763Z,45.50
2022-10-11T14:29:27.869Z,45.57
2022-10-11T14:32:14.544Z,45.19
2022-10-11T14:34:41.669Z,45.04
2022-10-11T14:37:09.772Z,45.14
2022-10-11T14:39:36.932Z,45.46
2022-10-11T14:42:04.791Z,45.21
2022-10-11T14:44:31.900Z,45.13
2022-10-11T14:46:59.136Z,45.13
2022-10-11T14:49:28.024Z,45.69
2022-10-11T14:51:55.935Z,45.61
2022-10-11T14:54:23.792Z,45.51
2022-10-11T14:56:55.288Z,45.36
2022-10-11T14:59:23.852Z,45.27
2022-10-11T15:01:52.009Z,45.24
2022-10-11T15:04:22.850Z,45.52
2022-10-11T15:06:50.121Z,45.39
2022-10-11T15:09:17.391Z,45.78
2022-10-11T15:11:44.585Z,45.49
2022-10-11T15:14:11.392Z,45.24
2022-10-11T15:16:40.008Z,45.71
2022-10-11T15:19:09.844Z,45.66
2022-10-11T15:21:36.601Z,45.81
2022-10-11T15:24:03.533Z,45.77
2022-10-11T15:26:30.613Z,45.55
2022-10-11T15:28:57.574Z,45.83
2022-10-11T15:31:24.433Z,45.78
2022-10-11T15:33:51.794Z,45.68
2022-10-11T15:36:21.174Z,45.89
2022-10-11T15:38:48.329Z,46.09
2022-10-11T15:41:16.587Z,45.71
2022-10-11T15:43:43.793Z,46.16
2022-10-11T15:46:17.472Z,46.29
2022-10-11T15:48:44.699Z,45.90
2022-10-11T15:51:11.705Z,46.21
2022-10-11T15:53:38.516Z,46.28
2022-10-11T15:56:07.369Z,46.31
2022-10-11T15:58:36.649Z,46.27
2022-10-11T16:01:08.846Z,46.39
2022-10-11T16:03:36.407Z,45.97
2022-10-11T16:06:05.589Z,46.38
2022-10-11T16:08:33.592Z,46.15
2022-10-11T16:11:00.826Z,46.26
2022-10-11T16:13:27.639Z,45.97
2022-10-11T16:15:54.821Z,46.03
2022-10-11T16:18:22.253Z,46.31
2022-10-11T16:20:51.949Z,46.15
2022-10-11T16:23:20.062Z,46.16
2022-10-11T16:25:48.143Z,46.20
2022-10-11T16:28:15.125Z,46.36
2022-10-11T16:30:45.253Z,46.39
2022-10-11T16:33:12.299Z,46.72
2022-10-11T16:35:42.512Z,46.53
2022-10-11T16:38:09.694Z,46.52
2022-10-11T16:40:40.403Z,46.47
2022-10-11T16:43:08.054Z,46.53
2022-10-11T16:45:35.496Z,46.62
2022-10-11T16:48:02.552Z,46.71
2022-10-11T16:50:29.358Z,46.53
2022-10-11T16:52:56.421Z,46.90
2022-10-11T16:55:23.393Z,46.66
2022-10-11T16:57:50.379Z,46.89
2022-10-11T17:00:17.177Z,46.87
2022-10-11T17:02:44.273Z,46.42
2022-10-11T17:05:11.013Z,46.46
2022-10-11T17:07:38.045Z,46.94
2022-10-11T17:10:05.431Z,46.55
2022-10-11T17:12:35.397Z,46.75
2022-10-11T17:15:02.188Z,47.16
2022-10-11T17:17:29.686Z,46.92
2022-10-11T17:19:56.591Z,46.97
2022-10-11T17:22:24.124Z,46.86
2022-10-11T17:24:51.178Z,46.64
2022-10-11T17:27:18.217Z,47.08
2022-10-11T17:29:45.011Z,46.86
2022-10-11T17:32:11.835Z,47.07
2022-10-11T17:34:38.811Z,47.07
2022-10-11T17:37:06.162Z,47.00
2022-10-11T17:39:34.113Z,46.89
2022-10-11T17:42:05.046Z,47.36
2022-10-11T17:44:31.850Z,47.96
2022-10-11T17:46:59.462Z,49.17
2022-10-11T17:49:26.336Z,48.73
2022-10-11T17:51:53.317Z,49.08
2022-10-11T17:54:20.138Z,48.59
2022-10-11T17:56:46.966Z,48.78
2022-10-11T17:59:18.367Z,49.10
2022-10-11T18:01:45.273Z,48.50
2022-10-11T18:04:16.602Z,49.46
2022-10-11T18:06:45.114Z,48.59
2022-10-11T18:09:12.734Z,48.82
2022-10-11T18:11:39.770Z,48.95
2022-10-11T18:14:06.593Z,48.84
2022-10-11T18:16:33.826Z,49.04
2022-10-11T18:19:01.697Z,48.95
2022-10-11T18:21:33.943Z,49.14
2022-10-11T18:24:02.745Z,49.23
2022-10-11T18:26:30.939Z,48.99
2022-10-11T18:28:58.057Z,49.35
2022-10-11T18:31:26.606Z,49.53
2022-10-11T18:33:53.462Z,49.36
2022-10-11T18:36:22.045Z,49.75
2022-10-11T18:38:50.774Z,49.57
2022-10-11T18:41:20.093Z,49.64
2022-10-11T18:43:50.814Z,49.52
2022-10-11T18:46:18.004Z,49.64
2022-10-11T18:48:45.672Z,50.53
2022-10-11T18:51:25.732Z,49.48
2022-10-11T18:53:53.520Z,49.72
2022-10-11T18:56:21.765Z,49.97
2022-10-11T18:58:49.628Z,50.21
2022-10-11T19:01:20.306Z,50.16
2022-10-11T19:03:48.379Z,50.02
2022-10-11T19:06:17.711Z,50.14
2022-10-11T19:08:52.472Z,50.60
2022-10-11T19:11:22.751Z,50.07
2022-10-11T19:14:01.286Z,50.10
2022-10-11T19:16:29.755Z,50.23
2022-10-11T19:18:57.051Z,50.30
2022-10-11T19:21:23.795Z,50.09
2022-10-11T19:23:50.955Z,50.20
2022-10-11T19:26:27.084Z,50.27
2022-10-11T19:29:00.679Z,50.49
2022-10-11T19:31:28.156Z,50.49
2022-10-11T19:33:56.656Z,50.62
2022-10-11T19:36:23.844Z,50.50
2022-10-11T19:38:51.050Z,50.41
2022-10-11T19:41:19.188Z,50.66
2022-10-11T19:43:46.496Z,50.77
2022-10-11T19:46:37.870Z,50.74
2022-10-11T19:49:05.450Z,50.57
2022-10-11T19:51:34.861Z,50.69
2022-10-11T19:54:03.386Z,51.09
2022-10-11T19:56:31.458Z,50.75
2022-10-11T19:58:58.565Z,50.95
2022-10-11T20:01:27.202Z,50.37
2022-10-11T20:03:56.593Z,50.99
2022-10-11T20:06:23.743Z,51.39
2022-10-11T20:09:10.344Z,52.05
2022-10-11T20:11:37.692Z,52.71
2022-10-11T20:14:04.671Z,52.58
2022-10-11T20:16:31.483Z,52.65
2022-10-11T20:18:59.269Z,52.51
2022-10-11T20:21:27.481Z,52.34
2022-10-11T20:23:57.376Z,52.32
2022-10-11T20:26:24.647Z,52.04
2022-10-11T20:28:55.919Z,52.41
2022-10-11T20:31:28.030Z,52.57
2022-10-11T20:33:56.540Z,52.29
2022-10-11T20:36:23.807Z,52.50
2022-10-11T20:38:51.270Z,52.38
2022-10-11T20:41:19.980Z,52.60
2022-10-11T20:43:51.468Z,52.63
2022-10-11T20:46:19.850Z,52.83
2022-10-11T20:48:58.864Z,52.85
2022-10-11T20:51:28.936Z,52.65
2022-10-11T20:53:56.511Z,52.72
2022-10-11T20:56:23.331Z,52.79
2022-10-11T20:58:52.264Z,52.95
2022-10-11T21:01:20.721Z,53.06
2022-10-11T21:03:47.526Z,52.98
2022-10-11T21:06:14.590Z,53.08
2022-10-11T21:08:41.369Z,53.05
2022-10-11T21:11:08.827Z,53.17
2022-10-11T21:13:35.721Z,53.24
2022-10-11T21:16:04.427Z,53.05
2022-10-11T21:18:31.230Z,53.07
2022-10-11T21:20:57.990Z,53.08
2022-10-11T21:23:24.974Z,53.30
2022-10-11T21:25:51.770Z,53.13
2022-10-11T21:28:18.569Z,52.87
2022-10-11T21:30:45.623Z,53.37
2022-10-11T21:33:12.379Z,53.18
2022-10-11T21:35:40.180Z,53.18
2022-10-11T21:38:07.183Z,53.32
2022-10-11T21:40:37.863Z,53.38
2022-10-11T21:43:04.639Z,53.46
2022-10-11T21:45:31.642Z,53.56
2022-10-11T21:47:58.566Z,53.33
2022-10-11T21:50:25.574Z,53.50
2022-10-11T21:52:52.350Z,53.36
2022-10-11T21:55:19.369Z,53.65
2022-10-11T21:57:46.110Z,53.56
2022-10-11T22:00:13.486Z,53.97
2022-10-11T22:02:40.626Z,53.88
2022-10-11T22:05:07.680Z,53.69
2022-10-11T22:07:34.462Z,53.69
2022-10-11T22:10:01.602Z,54.07
2022-10-11T22:12:28.587Z,53.74
2022-10-11T22:14:55.438Z,53.69
2022-10-11T22:17:22.506Z,53.75
2022-10-11T22:19:49.282Z,53.98
2022-10-11T22:22:16.114Z,54.01
2022-10-11T22:24:43.130Z,53.94
2022-10-11T22:27:09.936Z,54.04
2022-10-11T22:29:36.761Z,54.00
2022-10-11T22:32:04.526Z,53.81
2022-10-11T22:34:32.485Z,53.97
2022-10-11T22:36:59.245Z,53.98
2022-10-11T22:39:26.294Z,53.85
2022-10-11T22:41:53.905Z,53.63
2022-10-11T22:44:20.829Z,54.05
2022-10-11T22:46:47.853Z,54.10
2022-10-11T22:49:14.649Z,54.05
2022-10-11T22:51:41.445Z,54.07
2022-10-11T22:54:08.493Z,54.24
2022-10-11T22:56:35.366Z,53.82
2022-10-11T22:59:02.143Z,54.11
2022-10-11T23:01:29.153Z,54.07
2022-10-11T23:03:56.669Z,54.22
2022-10-11T23:06:23.525Z,54.34
2022-10-11T23:08:50.537Z,54.14
2022-10-11T23:11:17.372Z,54.06
2022-10-11T23:13:44.133Z,54.06
2022-10-11T23:16:12.012Z,54.14
2022-10-11T23:18:38.903Z,54.25
2022-10-11T23:21:05.876Z,54.19
2022-10-11T23:23:33.001Z,54.33
2022-10-11T23:26:11.434Z,54.08
2022-10-11T23:28:38.546Z,54.62
2022-10-11T23:31:09.283Z,54.17
2022-10-11T23:33:36.515Z,54.34
2022-10-11T23:36:04.068Z,54.24
2022-10-11T23:38:31.033Z,54.49
2022-10-11T23:40:57.856Z,54.31
2022-10-11T23:43:24.835Z,54.20
2022-10-11T23:45:51.600Z,54.40
2022-10-11T23:48:18.368Z,54.41
2022-10-11T23:50:45.608Z,54.53
2022-10-11T23:53:13.735Z,54.68
2022-10-11T23:55:40.691Z,54.45
2022-10-11T23:58:08.187Z,54.39
